createdAt,value
2023-04-15T00:01:19.815Z,78.89
2023-04-15T00:03:48.981Z,80.05
2023-04-15T00:06:18.012Z,79.99
2023-04-15T00:08:47.775Z,79.45
2023-04-15T00:11:18.479Z,79.68
2023-04-15T00:13:47.197Z,79.74
2023-04-15T00:16:15.959Z,81.18
2023-04-15T00:18:44.635Z,80.96
2023-04-15T00:21:13.375Z,80.85
2023-04-15T00:23:42.060Z,80.15
2023-04-15T00:26:10.787Z,79.75
2023-04-15T00:28:39.516Z,78.56
2023-04-15T00:31:08.258Z,78.13
2023-04-15T00:33:37.067Z,77.51
2023-04-15T00:36:08.766Z,78.62
2023-04-15T00:38:39.472Z,78.43
2023-04-15T00:41:09.281Z,78.27
2023-04-15T00:43:38.419Z,79.53
2023-04-15T00:46:07.805Z,79.91
2023-04-15T00:48:37.424Z,79.50
2023-04-15T00:51:07.350Z,79.77
2023-04-15T00:53:36.119Z,80.09
2023-04-15T00:56:05.591Z,82.16
2023-04-15T00:58:34.700Z,87.54
2023-04-15T01:01:04.618Z,93.07
2023-04-15T01:03:33.521Z,98.82
2023-04-15T01:06:04.145Z,100.00
2023-04-15T01:08:33.163Z,100.00
2023-04-15T01:11:03.844Z,100.00
2023-04-15T01:13:34.680Z,100.00
2023-04-15T01:16:03.552Z,100.00
2023-04-15T01:18:32.935Z,100.00
2023-04-15T01:21:04.969Z,100.00
2023-04-15T01:23:40.285Z,100.00
2023-04-15T01:26:12.242Z,100.00
2023-04-15T01:28:41.165Z,100.00
2023-04-15T01:31:13.833Z,100.00
2023-04-15T01:33:43.820Z,100.00
2023-04-15T01:36:12.466Z,100.00
2023-04-15T01:38:41.419Z,100.00
2023-04-15T01:41:10.145Z,100.00
2023-04-15T01:43:38.866Z,100.00
2023-04-15T01:46:07.578Z,100.00
2023-04-15T01:48:36.277Z,100.00
2023-04-15T01:51:05.863Z,100.00
2023-04-15T01:53:34.698Z,100.00
2023-04-15T01:56:04.523Z,100.00
2023-04-15T01:58:33.469Z,100.00
2023-04-15T02:01:03.241Z,100.00
2023-04-15T02:03:34.249Z,100.00
2023-04-15T02:06:03.021Z,100.00
2023-04-15T02:08:31.851Z,100.00
2023-04-15T02:11:01.400Z,100.00
2023-04-15T02:13:31.059Z,100.00
2023-04-15T02:16:04.060Z,100.00
2023-04-15T02:18:32.897Z,100.00
2023-04-15T02:21:01.744Z,100.00
2023-04-15T02:23:30.482Z,100.00
2023-04-15T02:26:00.132Z,100.00
2023-04-15T02:28:28.848Z,100.00
2023-04-15T02:30:59.388Z,100.00
2023-04-15T02:33:28.237Z,100.00
2023-04-15T02:35:56.901Z,100.00
2023-04-15T02:38:25.789Z,100.00
2023-04-15T02:40:54.791Z,100.00
2023-04-15T02:43:23.973Z,100.00
2023-04-15T02:45:53.434Z,100.00
2023-04-15T02:48:22.364Z,100.00
2023-04-15T02:50:51.956Z,100.00
2023-04-15T02:53:21.168Z,100.00
2023-04-15T02:55:49.788Z,100.00
2023-04-15T02:58:18.500Z,100.00
2023-04-15T03:00:47.197Z,100.00
2023-04-15T03:03:16.150Z,100.00
2023-04-15T03:05:45.147Z,100.00
2023-04-15T03:08:15.134Z,100.00
2023-04-15T03:10:43.803Z,100.00
2023-04-15T03:13:12.528Z,100.00
2023-04-15T03:15:42.355Z,100.00
2023-04-15T03:18:11.638Z,100.00
2023-04-15T03:20:42.245Z,100.00
2023-04-15T03:23:11.299Z,100.00
2023-04-15T03:25:40.837Z,100.00
2023-04-15T03:28:10.413Z,100.00
2023-04-15T03:30:39.176Z,100.00
2023-04-15T03:33:08.753Z,100.00
2023-04-15T03:35:38.416Z,100.00
2023-04-15T03:38:07.290Z,100.00
2023-04-15T03:40:36.056Z,100.00
2023-04-15T03:43:04.790Z,100.00
2023-04-15T03:45:33.844Z,100.00
2023-04-15T03:50:34.105Z,100.00
2023-04-15T03:53:02.838Z,100.00
2023-04-15T03:55:31.859Z,100.00
2023-04-15T03:58:00.523Z,100.00
2023-04-15T04:00:29.290Z,100.00
2023-04-15T04:02:58.204Z,100.00
2023-04-15T04:05:26.984Z,100.00
2023-04-15T04:07:55.711Z,100.00
2023-04-15T04:10:24.441Z,100.00
2023-04-15T04:12:53.122Z,100.00
2023-04-15T04:15:21.862Z,100.00
2023-04-15T04:17:51.073Z,100.00
2023-04-15T04:20:19.811Z,100.00
2023-04-15T04:22:48.578Z,100.00
2023-04-15T04:25:17.788Z,100.00
2023-04-15T04:27:46.591Z,100.00
2023-04-15T04:30:15.257Z,100.00
2023-04-15T04:32:43.999Z,100.00
2023-04-15T04:35:12.949Z,100.00
2023-04-15T04:37:41.640Z,100.00
2023-04-15T04:40:11.056Z,100.00
2023-04-15T04:42:40.156Z,100.00
2023-04-15T04:45:09.666Z,100.00
2023-04-15T04:47:38.402Z,100.00
2023-04-15T04:50:09.298Z,100.00
2023-04-15T04:52:38.584Z,100.00
2023-04-15T04:55:08.790Z,100.00
2023-04-15T04:57:39.643Z,100.00
2023-04-15T05:00:09.285Z,100.00
2023-04-15T05:02:38.248Z,100.00
2023-04-15T05:05:08.084Z,100.00
2023-04-15T05:07:36.942Z,100.00
2023-04-15T05:10:06.831Z,100.00
2023-04-15T05:12:37.697Z,100.00
2023-04-15T05:15:07.643Z,100.00
2023-04-15T05:17:36.498Z,100.00
2023-04-15T05:20:05.885Z,100.00
2023-04-15T05:22:34.673Z,100.00
2023-04-15T05:25:03.634Z,100.00
2023-04-15T05:27:32.450Z,100.00
2023-04-15T05:30:01.353Z,100.00
2023-04-15T05:32:30.091Z,100.00
2023-04-15T05:34:58.925Z,100.00
2023-04-15T05:37:27.617Z,100.00
2023-04-15T05:39:56.958Z,100.00
2023-04-15T05:42:25.835Z,100.00
2023-04-15T05:44:54.516Z,100.00
2023-04-15T05:47:23.394Z,100.00
2023-04-15T05:49:52.500Z,100.00
2023-04-15T05:52:21.488Z,100.00
2023-04-15T05:54:50.196Z,100.00
2023-04-15T05:57:18.901Z,100.00
2023-04-15T05:59:47.805Z,100.00
2023-04-15T06:02:16.603Z,100.00
2023-04-15T06:04:45.642Z,100.00
2023-04-15T06:07:14.546Z,100.00
2023-04-15T06:09:43.256Z,100.00
2023-04-15T06:12:13.360Z,100.00
2023-04-15T06:14:42.150Z,100.00
2023-04-15T06:17:11.019Z,100.00
2023-04-15T06:19:39.856Z,100.00
2023-04-15T06:22:09.398Z,100.00
2023-04-15T06:24:38.134Z,100.00
2023-04-15T06:27:06.787Z,100.00
2023-04-15T06:29:35.800Z,100.00
2023-04-15T06:32:04.520Z,100.00
2023-04-15T06:34:33.334Z,100.00
2023-04-15T06:37:02.973Z,100.00
2023-04-15T06:39:33.767Z,100.00
2023-04-15T06:42:03.609Z,100.00
2023-04-15T06:44:33.788Z,100.00
2023-04-15T06:47:03.002Z,100.00
2023-04-15T06:49:32.058Z,100.00
2023-04-15T06:52:01.842Z,100.00
2023-04-15T06:54:30.590Z,100.00
2023-04-15T06:56:59.255Z,100.00
2023-04-15T06:59:27.918Z,100.00
2023-04-15T07:01:56.885Z,100.00
2023-04-15T07:04:26.161Z,100.00
2023-04-15T07:06:55.823Z,100.00
2023-04-15T07:09:24.970Z,100.00
2023-04-15T07:11:53.730Z,100.00
2023-04-15T07:14:22.879Z,100.00
2023-04-15T07:16:51.803Z,100.00
2023-04-15T07:19:20.608Z,100.00
2023-04-15T07:21:49.876Z,99.78
2023-04-15T07:24:20.284Z,99.20
2023-04-15T07:26:49.530Z,99.85
2023-04-15T07:29:18.658Z,98.22
2023-04-15T07:31:47.539Z,98.17
2023-04-15T07:34:16.892Z,99.27
2023-04-15T07:36:46.212Z,99.36
2023-04-15T07:39:15.002Z,99.78
2023-04-15T07:41:43.944Z,99.60
2023-04-15T07:44:12.825Z,99.45
2023-04-15T07:46:41.661Z,99.28
2023-04-15T07:49:10.386Z,99.83
2023-04-15T07:51:39.227Z,99.29
2023-04-15T07:54:07.966Z,99.92
2023-04-15T07:56:36.792Z,100.00
2023-04-15T07:59:06.731Z,100.00
2023-04-15T08:01:35.959Z,100.00
2023-04-15T08:04:07.569Z,100.00
2023-04-15T08:06:40.157Z,100.00
2023-04-15T08:09:09.283Z,100.00
2023-04-15T08:11:38.389Z,100.00
2023-04-15T08:14:07.163Z,100.00
2023-04-15T08:16:36.336Z,100.00
2023-04-15T08:19:05.767Z,100.00
2023-04-15T08:21:34.841Z,100.00
2023-04-15T08:24:03.948Z,100.00
2023-04-15T08:26:32.994Z,100.00
2023-04-15T08:29:02.018Z,100.00
2023-04-15T08:31:31.242Z,100.00
2023-04-15T08:34:04.594Z,100.00
2023-04-15T08:36:34.218Z,100.00
2023-04-15T08:39:05.131Z,100.00
2023-04-15T08:42:02.768Z,100.00
2023-04-15T08:44:37.036Z,100.00
2023-04-15T08:47:09.422Z,100.00
2023-04-15T08:49:41.528Z,100.00
2023-04-15T08:52:10.649Z,100.00
2023-04-15T08:54:40.243Z,100.00
2023-04-15T08:57:09.572Z,100.00
2023-04-15T08:59:38.662Z,100.00
2023-04-15T09:02:10.098Z,100.00
2023-04-15T09:04:42.790Z,100.00
2023-04-15T09:07:12.583Z,100.00
2023-04-15T09:09:50.591Z,100.00
2023-04-15T09:12:26.707Z,100.00
2023-04-15T09:14:58.887Z,100.00
2023-04-15T09:17:28.084Z,100.00
2023-04-15T09:20:16.901Z,100.00
2023-04-15T09:22:49.070Z,100.00
2023-04-15T09:25:31.089Z,100.00
2023-04-15T09:28:02.965Z,100.00
2023-04-15T09:30:32.032Z,100.00
2023-04-15T09:33:05.127Z,100.00
2023-04-15T09:35:35.786Z,100.00
2023-04-15T09:38:10.189Z,100.00
2023-04-15T09:40:43.452Z,100.00
2023-04-15T09:43:17.985Z,100.00
2023-04-15T09:45:54.087Z,100.00
2023-04-15T09:48:27.447Z,100.00
2023-04-15T09:51:00.717Z,100.00
2023-04-15T09:53:31.854Z,100.00
2023-04-15T09:56:02.906Z,100.00
2023-04-15T09:58:35.899Z,100.00
2023-04-15T10:01:06.537Z,100.00
2023-04-15T10:03:37.801Z,99.88
2023-04-15T10:06:07.292Z,99.39
2023-04-15T10:08:35.979Z,100.00
2023-04-15T10:11:07.181Z,100.00
2023-04-15T10:13:39.149Z,100.00
2023-04-15T10:16:15.434Z,100.00
2023-04-15T10:18:47.232Z,100.00
2023-04-15T10:21:18.901Z,100.00
2023-04-15T10:23:48.475Z,100.00
2023-04-15T10:26:17.926Z,100.00
2023-04-15T10:28:48.482Z,100.00
2023-04-15T10:31:18.628Z,100.00
2023-04-15T10:33:48.928Z,100.00
2023-04-15T10:36:20.063Z,100.00
2023-04-15T10:38:48.772Z,100.00
2023-04-15T10:41:31.446Z,100.00
2023-04-15T10:44:01.402Z,100.00
2023-04-15T10:46:40.263Z,100.00
2023-04-15T10:49:24.648Z,100.00
2023-04-15T10:51:59.313Z,100.00
2023-04-15T10:54:28.106Z,100.00
2023-04-15T10:57:08.801Z,100.00
2023-04-15T11:00:01.300Z,100.00
2023-04-15T11:02:57.682Z,100.00
2023-04-15T11:05:41.762Z,100.00
2023-04-15T11:08:14.010Z,100.00
2023-04-15T11:10:42.631Z,100.00
2023-04-15T11:13:11.297Z,100.00
2023-04-15T11:15:42.087Z,100.00
2023-04-15T11:18:15.102Z,100.00
2023-04-15T11:20:54.961Z,100.00
2023-04-15T11:23:32.311Z,100.00
2023-04-15T11:26:05.738Z,100.00
2023-04-15T11:28:34.805Z,100.00
2023-04-15T11:31:10.861Z,99.90
2023-04-15T11:33:57.190Z,99.18
2023-04-15T11:36:35.038Z,97.40
2023-04-15T11:39:07.772Z,95.67
2023-04-15T11:41:36.658Z,92.14
2023-04-15T11:44:18.176Z,88.53
2023-04-15T11:46:46.957Z,84.42
2023-04-15T11:49:31.497Z,82.74
2023-04-15T11:52:01.353Z,79.30
2023-04-15T11:54:30.486Z,78.82
2023-04-15T11:57:00.405Z,76.35
2023-04-15T11:59:45.796Z,74.81
2023-04-15T12:02:14.996Z,73.77
2023-04-15T12:04:44.215Z,71.86
2023-04-15T12:07:13.133Z,73.67
2023-04-15T12:09:42.708Z,74.63
2023-04-15T12:12:12.661Z,73.16
2023-04-15T12:14:42.472Z,72.33
2023-04-15T12:17:11.709Z,70.79
2023-04-15T12:19:43.390Z,72.47
2023-04-15T12:22:15.910Z,71.72
2023-04-15T12:24:48.149Z,71.74
2023-04-15T12:27:17.987Z,71.11
2023-04-15T12:29:46.791Z,68.67
2023-04-15T12:32:23.004Z,58.31
2023-04-15T12:34:53.480Z,56.57
2023-04-15T12:37:22.426Z,57.64
2023-04-15T12:39:52.537Z,59.15
2023-04-15T12:42:22.783Z,59.41
2023-04-15T12:44:51.545Z,58.37
2023-04-15T12:47:20.431Z,58.01
2023-04-15T12:49:49.835Z,58.67
2023-04-15T12:52:18.709Z,58.54
2023-04-15T12:54:47.393Z,57.01
2023-04-15T12:57:16.336Z,56.08
2023-04-15T12:59:45.787Z,56.08
2023-04-15T13:02:14.625Z,59.16
2023-04-15T13:04:43.666Z,58.79
2023-04-15T13:10:39.465Z,58.32
2023-04-15T13:13:08.982Z,55.50
2023-04-15T13:15:38.533Z,54.56
2023-04-15T13:18:07.986Z,53.60
2023-04-15T13:20:36.877Z,52.26
2023-04-15T13:23:05.789Z,50.47
2023-04-15T13:25:34.695Z,47.98
2023-04-15T13:28:03.760Z,47.26
2023-04-15T13:30:32.600Z,45.87
2023-04-15T13:33:01.556Z,45.81
2023-04-15T13:35:30.594Z,45.29
2023-04-15T13:37:59.526Z,44.83
2023-04-15T13:40:28.757Z,44.38
2023-04-15T13:42:58.952Z,44.50
2023-04-15T13:45:27.771Z,44.25
2023-04-15T13:48:00.287Z,44.51
2023-04-15T13:50:29.691Z,43.25
2023-04-15T13:52:58.547Z,43.21
2023-04-15T13:55:28.501Z,43.61
2023-04-15T13:57:58.052Z,43.01
2023-04-15T14:00:27.168Z,42.74
2023-04-15T14:02:56.030Z,42.55
2023-04-15T14:05:25.222Z,42.27
2023-04-15T14:07:54.282Z,42.79
2023-04-15T14:10:23.102Z,43.33
2023-04-15T14:12:51.999Z,42.43
2023-04-15T14:15:21.605Z,42.65
2023-04-15T14:17:50.437Z,42.64
2023-04-15T14:20:19.293Z,45.84
2023-04-15T14:22:48.182Z,47.29
2023-04-15T14:25:30.461Z,48.03
2023-04-15T14:28:03.687Z,46.26
2023-04-15T14:30:32.561Z,44.52
2023-04-15T14:33:02.076Z,43.52
2023-04-15T14:35:31.354Z,42.58
2023-04-15T14:38:00.178Z,41.55
2023-04-15T14:40:28.904Z,41.73
2023-04-15T14:42:57.633Z,41.11
2023-04-15T14:45:26.381Z,41.62
2023-04-15T14:47:55.200Z,40.65
2023-04-15T14:50:24.076Z,41.42
2023-04-15T14:52:52.821Z,40.80
2023-04-15T14:55:21.616Z,40.15
2023-04-15T14:57:50.418Z,39.74
2023-04-15T15:00:19.343Z,40.01
2023-04-15T15:02:48.291Z,41.35
2023-04-15T15:05:17.191Z,40.51
2023-04-15T15:07:46.124Z,40.83
2023-04-15T15:10:14.943Z,40.54
2023-04-15T15:12:43.708Z,40.47
2023-04-15T15:15:25.110Z,39.73
2023-04-15T15:17:57.357Z,40.35
2023-04-15T15:20:26.928Z,40.75
2023-04-15T15:22:56.856Z,40.98
2023-04-15T15:25:26.247Z,40.89
2023-04-15T15:27:55.074Z,41.66
2023-04-15T15:30:23.881Z,42.58
2023-04-15T15:32:52.657Z,41.90
2023-04-15T15:35:23.139Z,42.21
2023-04-15T15:37:52.641Z,43.11
2023-04-15T15:40:21.717Z,44.56
2023-04-15T15:42:51.095Z,44.40
2023-04-15T15:45:19.852Z,44.07
2023-04-15T15:47:48.840Z,44.31
2023-04-15T15:50:17.633Z,45.82
2023-04-15T15:52:46.289Z,46.16
2023-04-15T15:55:15.079Z,45.61
2023-04-15T15:57:43.848Z,45.99
2023-04-15T16:00:13.431Z,45.66
2023-04-15T16:05:14.443Z,46.93
2023-04-15T16:07:43.283Z,47.32
2023-04-15T16:10:14.296Z,45.98
2023-04-15T16:12:44.936Z,45.89
2023-04-15T16:15:14.082Z,46.41
2023-04-15T16:17:43.333Z,46.74
2023-04-15T16:20:12.099Z,48.19
2023-04-15T16:22:40.898Z,49.67
2023-04-15T16:25:10.719Z,50.77
2023-04-15T16:30:12.761Z,53.92
2023-04-15T16:32:41.716Z,55.51
2023-04-15T16:35:11.768Z,56.06
2023-04-15T16:37:40.513Z,57.97
